Greifswald — 3FEC8 — position and weather

sailwx.info

Track history (hours):
 
Tides and Currents Weather Stations Pressure Air Temp Water Temp Dewpoint Dewpoint Depression Visibility Wind Speed Wind Dir Waves Ship Positions

Greifswald

Last reported at 2017-May-27 01:33 UTC. Time now 2017-May-27 04:24 UTC.
Position N 45°25' E 031°60'.

Length 191 m; draft 6.6 m.

Type: Passenger vessel. MMSI: 370492000.

Date/timePositionNaut miles runAvg speedWind from/ knotsBaromVisibWave heightAir tempDewpointWater temp
2017-May-27 01:33N 45°25' E 031°60'915.9
2017-May-27 00:58N 45°31' E 031°51'715.8
2017-May-27 00:30N 45°36' E 031°43'815.8
2017-May-26 23:59N 45°42' E 031°35'715.5
2017-May-26 23:30N 45°48' E 031°28'815.5
2017-May-26 23:01N 45°54' E 031°21'1015.8
2017-May-26 22:23N 46°02' E 031°13'1615.4
2017-May-26 21:20N 46°13' E 030°56'1314.3
2017-May-26 20:25N 46°20' E 030°39'1 0.1
2017-May-26 09:24N 46°21' E 030°39'4 4.5
2017-May-26 08:28N 46°19' E 030°44'  
2017-May-23 18:29N 46°20' E 030°39'1 0.2
2017-May-23 14:14N 46°21' E 030°39'0 0.0
2017-May-23 12:25N 46°21' E 030°39'0 0.0
2017-May-23 11:24N 46°21' E 030°39'0 0.0
2017-May-23 10:29N 46°21' E 030°39'0 0.0
2017-May-23 09:23N 46°21' E 030°39'0 0.0
2017-May-23 03:20N 46°21' E 030°39'0 0.0
2017-May-23 02:21N 46°21' E 030°39'0 0.0
2017-May-23 01:16N 46°21' E 030°39'0 0.0
2017-May-23 00:28N 46°21' E 030°39'0 0.0
2017-May-22 23:17N 46°21' E 030°39'0 0.0
2017-May-22 22:28N 46°21' E 030°39'0 0.0
2017-May-22 22:00N 46°21' E 030°39'0 0.0
2017-May-22 21:25N 46°21' E 030°39'0 0.0
2017-May-22 21:00N 46°21' E 030°39'0 0.0
2017-May-22 20:30N 46°21' E 030°39'0 0.0
2017-May-22 20:00N 46°21' E 030°39'0 0.0
2017-May-22 19:29N 46°21' E 030°39'0 0.0
2017-May-22 19:00N 46°21' E 030°39'0 0.0
2017-May-22 18:29N 46°21' E 030°39'0 0.0
2017-May-22 18:00N 46°21' E 030°39'0 0.0
2017-May-22 17:30N 46°21' E 030°39'0 0.0
2017-May-22 17:00N 46°21' E 030°39'0 0.0
2017-May-22 16:28N 46°21' E 030°39'0 0.0
2017-May-22 15:28N 46°21' E 030°39'0 0.7
2017-May-22 15:00N 46°20' E 030°39'9 8.9
2017-May-22 13:59N 46°17' E 030°52'  
2017-May-17 18:16N 46°12' E 030°57'413.9
2017-May-17 17:58N 46°14' E 030°53'612.7
2017-May-17 17:29N 46°17' E 030°45'4 9.3
2017-May-17 17:01N 46°20' E 030°39'1 0.2
2017-May-17 11:28N 46°21' E 030°39'0 0.0
2017-May-17 10:19N 46°21' E 030°39'0 0.0
2017-May-17 05:15N 46°21' E 030°39'1 0.4
2017-May-17 03:29N 46°20' E 030°40'810.1
2017-May-17 02:43N 46°18' E 030°50'412.8
2017-May-17 02:26N 46°17' E 030°55'  
Track history (hours):
 
Tides and Currents Weather Stations Pressure Air Temp Water Temp Dewpoint Dewpoint Depression Visibility Wind Speed Wind Dir Waves Ship Positions

Greifswald

Last reported at 2017-May-27 01:33 UTC. Time now 2017-May-27 04:24 UTC.
Position N 45°25' E 031°60'.

Length 191 m; draft 6.6 m.

Type: Passenger vessel. MMSI: 370492000.

Date/timePositionNaut miles runAvg speedWind from/ knotsBaromVisibWave heightAir tempDewpointWater temp
2017-May-27 01:33N 45°25' E 031°60'915.9
2017-May-27 00:58N 45°31' E 031°51'715.8
2017-May-27 00:30N 45°36' E 031°43'815.8
2017-May-26 23:59N 45°42' E 031°35'715.5
2017-May-26 23:30N 45°48' E 031°28'815.5
2017-May-26 23:01N 45°54' E 031°21'1015.8
2017-May-26 22:23N 46°02' E 031°13'1615.4
2017-May-26 21:20N 46°13' E 030°56'1314.3
2017-May-26 20:25N 46°20' E 030°39'1 0.1
2017-May-26 09:24N 46°21' E 030°39'4 4.5
2017-May-26 08:28N 46°19' E 030°44'  
2017-May-23 18:29N 46°20' E 030°39'1 0.2
2017-May-23 14:14N 46°21' E 030°39'0 0.0
2017-May-23 12:25N 46°21' E 030°39'0 0.0
2017-May-23 11:24N 46°21' E 030°39'0 0.0
2017-May-23 10:29N 46°21' E 030°39'0 0.0
2017-May-23 09:23N 46°21' E 030°39'0 0.0
2017-May-23 03:20N 46°21' E 030°39'0 0.0
2017-May-23 02:21N 46°21' E 030°39'0 0.0
2017-May-23 01:16N 46°21' E 030°39'0 0.0
2017-May-23 00:28N 46°21' E 030°39'0 0.0
2017-May-22 23:17N 46°21' E 030°39'0 0.0
2017-May-22 22:28N 46°21' E 030°39'0 0.0
2017-May-22 22:00N 46°21' E 030°39'0 0.0
2017-May-22 21:25N 46°21' E 030°39'0 0.0
2017-May-22 21:00N 46°21' E 030°39'0 0.0
2017-May-22 20:30N 46°21' E 030°39'0 0.0
2017-May-22 20:00N 46°21' E 030°39'0 0.0
2017-May-22 19:29N 46°21' E 030°39'0 0.0
2017-May-22 19:00N 46°21' E 030°39'0 0.0
2017-May-22 18:29N 46°21' E 030°39'0 0.0
2017-May-22 18:00N 46°21' E 030°39'0 0.0
2017-May-22 17:30N 46°21' E 030°39'0 0.0
2017-May-22 17:00N 46°21' E 030°39'0 0.0
2017-May-22 16:28N 46°21' E 030°39'0 0.0
2017-May-22 15:28N 46°21' E 030°39'0 0.7
2017-May-22 15:00N 46°20' E 030°39'9 8.9
2017-May-22 13:59N 46°17' E 030°52'  
2017-May-17 18:16N 46°12' E 030°57'413.9
2017-May-17 17:58N 46°14' E 030°53'612.7
2017-May-17 17:29N 46°17' E 030°45'4 9.3
2017-May-17 17:01N 46°20' E 030°39'1 0.2
2017-May-17 11:28N 46°21' E 030°39'0 0.0
2017-May-17 10:19N 46°21' E 030°39'0 0.0
2017-May-17 05:15N 46°21' E 030°39'1 0.4
2017-May-17 03:29N 46°20' E 030°40'810.1
2017-May-17 02:43N 46°18' E 030°50'412.8
2017-May-17 02:26N 46°17' E 030°55'  

Dump ship's entire track history